Time;durP1;ratioP1;P1;durP2;ratioP2;P2;SDS_P1;SDS_P2;PMS_P1;PMS_P2;Temp;Humidity;BMP_temperature;BMP_pressure;BME280_temperature;BME280_humidity;BME280_pressure;Samples;Min_cycle;Max_cycle;Signal;HPM_P1;HPM_P2
2023/12/14 00:00:01;;;;;;;4.40;2.43;;;;;;;5.55;100.00;152787.22;5084897;28;20494;-83
2023/12/14 00:02:32;;;;;;;2.23;2.03;;;;;;;5.51;100.00;152776.88;5087204;28;20456;-83
2023/12/14 00:04:58;;;;;;;2.77;2.10;;;;;;;5.50;100.00;152774.31;5089262;28;20445;-83
2023/12/14 00:07:25;;;;;;;3.00;2.13;;;;;;;5.51;100.00;152776.88;5087755;28;20990;-83
2023/12/14 00:09:51;;;;;;;2.70;2.07;;;;;;;5.54;100.00;152785.91;5080538;28;20502;-83
2023/12/14 00:12:19;;;;;;;3.00;2.30;;;;;;;5.52;100.00;152780.78;5087459;28;20490;-83
2023/12/14 00:14:46;;;;;;;4.10;2.93;;;;;;;5.52;100.00;152779.47;5092991;28;20437;-83
2023/12/14 00:17:12;;;;;;;3.77;3.00;;;;;;;5.51;100.00;152776.88;5101853;28;20950;-83
2023/12/14 00:19:39;;;;;;;3.70;3.00;;;;;;;5.51;100.00;152778.19;5084747;28;20460;-84
2023/12/14 00:22:05;;;;;;;4.03;3.63;;;;;;;5.50;100.00;152774.31;5087225;28;20484;-83
2023/12/14 00:24:32;;;;;;;4.30;3.50;;;;;;;5.45;100.00;152762.69;5095013;28;20844;-83
2023/12/14 00:26:58;;;;;;;5.87;3.57;;;;;;;5.49;100.00;152773.03;5083846;28;21008;-84
2023/12/14 00:29:26;;;;;;;4.97;3.83;;;;;;;5.49;100.00;152771.72;5087570;28;20464;-84
2023/12/14 00:31:52;;;;;;;4.60;4.10;;;;;;;5.47;100.00;152767.88;5096001;28;20461;-83
2023/12/14 00:34:19;;;;;;;4.40;3.67;;;;;;;5.46;100.00;152765.28;5085487;28;20460;-83
2023/12/14 00:36:45;;;;;;;4.40;3.50;;;;;;;5.47;100.00;152767.88;5087048;28;20451;-83
2023/12/14 00:39:13;;;;;;;4.20;3.70;;;;;;;5.52;100.00;152779.47;5094272;28;20451;-83
2023/12/14 00:41:39;;;;;;;4.53;3.67;;;;;;;5.52;100.00;152779.47;5070416;28;20444;-83
2023/12/14 00:44:06;;;;;;;4.60;3.90;;;;;;;5.47;100.00;152767.88;5085681;28;20452;-83
2023/12/14 00:46:33;;;;;;;3.57;2.93;;;;;;;5.45;100.00;152761.44;5098908;28;20481;-83
2023/12/14 00:49:01;;;;;;;4.77;2.83;;;;;;;5.45;100.00;152762.69;5086556;28;20441;-83
2023/12/14 00:51:28;;;;;;;4.87;3.20;;;;;;;5.49;100.00;152771.72;5086024;28;20459;-83
2023/12/14 00:53:54;;;;;;;4.10;3.20;;;;;;;5.50;100.00;152774.31;5087206;28;20501;-83
2023/12/14 00:56:21;;;;;;;4.17;3.00;;;;;;;5.48;100.00;152769.19;5084725;28;20602;-83
2023/12/14 00:58:47;;;;;;;3.20;2.70;;;;;;;5.46;100.00;152764.00;5087752;28;20445;-83
2023/12/14 01:01:14;;;;;;;4.20;2.97;;;;;;;5.48;100.00;152769.19;5083499;28;20456;-83
2023/12/14 01:03:42;;;;;;;3.40;3.10;;;;;;;5.46;100.00;152764.00;5087547;28;20456;-83
2023/12/14 01:06:08;;;;;;;3.23;2.93;;;;;;;5.46;100.00;152764.00;5085972;28;20472;-83
2023/12/14 01:08:35;;;;;;;3.63;2.60;;;;;;;5.44;100.00;152760.13;5089058;28;20433;-83
2023/12/14 01:11:01;;;;;;;4.07;2.90;;;;;;;5.47;100.00;152766.59;5088012;28;20525;-73
2023/12/14 01:13:28;;;;;;;4.03;2.60;;;;;;;5.49;100.00;152771.72;5079553;28;20503;-74
2023/12/14 01:15:54;;;;;;;4.30;3.00;;;;;;;5.49;100.00;152771.72;5095451;28;20531;-74
2023/12/14 01:18:21;;;;;;;4.70;2.50;;;;;;;5.51;100.00;152778.19;5089634;28;20461;-74
2023/12/14 01:20:48;;;;;;;3.50;2.57;;;;;;;5.49;100.00;152771.72;5087994;28;20837;-74
2023/12/14 01:23:15;;;;;;;3.00;2.13;;;;;;;5.46;100.00;152764.00;5088971;28;20452;-74
2023/12/14 01:25:42;;;;;;;2.70;2.20;;;;;;;5.44;100.00;152758.84;5094919;28;20861;-74
2023/12/14 01:28:08;;;;;;;2.90;2.60;;;;;;;5.42;100.00;152753.69;5071945;28;20449;-74
2023/12/14 01:30:35;;;;;;;3.00;2.43;;;;;;;5.44;100.00;152758.84;5089656;28;20456;-74
2023/12/14 01:33:01;;;;;;;3.30;2.53;;;;;;;5.45;100.00;152761.44;5090524;28;20460;-74
2023/12/14 01:35:29;;;;;;;3.73;2.90;;;;;;;5.45;100.00;152761.44;5094740;28;20449;-74
2023/12/14 01:37:57;;;;;;;3.20;2.50;;;;;;;5.43;100.00;152757.53;5085387;28;20461;-74
2023/12/14 01:40:24;;;;;;;2.80;2.37;;;;;;;5.42;100.00;152755.00;5097383;28;20445;-74
2023/12/14 01:42:50;;;;;;;3.10;2.57;;;;;;;5.43;100.00;152757.53;5091293;28;20461;-74
2023/12/14 01:45:18;;;;;;;4.50;2.50;;;;;;;5.44;100.00;152758.84;5090104;28;20445;-75
2023/12/14 01:47:44;;;;;;;3.10;2.57;;;;;;;5.46;100.00;152764.00;5106203;28;21053;-74
2023/12/14 01:50:11;;;;;;;5.33;3.07;;;;;;;5.47;100.00;152767.88;5085304;28;20454;-74
2023/12/14 01:52:37;;;;;;;4.83;2.97;;;;;;;5.46;100.00;152764.00;5081276;28;21025;-74
2023/12/14 01:55:06;;;;;;;2.83;2.30;;;;;;;5.48;100.00;152769.19;5088031;28;20429;-74
2023/12/14 01:57:33;;;;;;;3.10;2.10;;;;;;;5.48;100.00;152769.19;5092485;28;20444;-74
2023/12/14 01:59:59;;;;;;;4.57;2.80;;;;;;;5.50;100.00;152775.63;5089245;28;21028;-74
2023/12/14 02:02:26;;;;;;;2.90;2.50;;;;;;;5.48;100.00;152769.19;5090318;28;20453;-74
2023/12/14 02:04:52;;;;;;;3.47;3.07;;;;;;;5.47;100.00;152766.59;5099539;28;20507;-74
2023/12/14 02:07:19;;;;;;;3.20;2.80;;;;;;;5.46;100.00;152765.28;5091060;28;20476;-74
2023/12/14 02:09:45;;;;;;;2.43;2.23;;;;;;;5.43;100.00;152757.53;5088925;28;20453;-74
2023/12/14 02:12:13;;;;;;;2.60;2.07;;;;;;;5.45;100.00;152762.69;5090486;28;21008;-75
2023/12/14 02:14:40;;;;;;;2.57;2.37;;;;;;;5.46;100.00;152764.00;5089691;28;20908;-74
2023/12/14 02:17:06;;;;;;;3.07;1.60;;;;;;;5.49;100.00;152771.72;5088960;28;20464;-74
2023/12/14 02:19:33;;;;;;;4.10;2.20;;;;;;;5.51;100.00;152776.88;5083616;28;20491;-74
2023/12/14 02:21:59;;;;;;;2.50;1.87;;;;;;;5.49;100.00;152773.03;5071079;28;20886;-74
2023/12/14 02:24:27;;;;;;;2.83;2.00;;;;;;;5.49;100.00;152771.72;5088879;28;20531;-74
2023/12/14 02:26:54;;;;;;;4.83;2.70;;;;;;;5.49;100.00;152773.03;5104836;28;20464;-74
2023/12/14 02:29:20;;;;;;;2.57;1.80;;;;;;;5.49;100.00;152773.03;5092595;28;20846;-74
2023/12/14 02:31:47;;;;;;;4.07;1.70;;;;;;;5.45;100.00;152761.44;5084353;28;20470;-74
2023/12/14 02:34:14;;;;;;;3.30;2.10;;;;;;;5.44;100.00;152760.13;5102459;28;20470;-74
2023/12/14 02:36:40;;;;;;;3.20;1.80;;;;;;;5.47;100.00;152766.59;5085741;28;20952;-74
2023/12/14 02:39:07;;;;;;;2.83;1.63;;;;;;;5.46;100.00;152764.00;5090521;28;20851;-74
2023/12/14 02:41:35;;;;;;;2.10;1.60;;;;;;;5.42;100.00;152753.69;5067916;28;20522;-74
2023/12/14 02:44:01;;;;;;;3.00;2.10;;;;;;;5.39;100.00;152747.25;5110161;27;20497;-74
2023/12/14 02:46:28;;;;;;;2.70;1.80;;;;;;;5.43;100.00;152756.25;5084571;28;20480;-84
2023/12/14 02:48:54;;;;;;;1.97;1.70;;;;;;;5.47;100.00;152767.88;5085060;28;20498;-84
2023/12/14 02:51:21;;;;;;;2.33;1.83;;;;;;;5.47;100.00;152766.59;5089503;28;20457;-84
2023/12/14 02:53:47;;;;;;;2.30;1.73;;;;;;;5.49;100.00;152773.03;5088287;28;20456;-84
2023/12/14 02:56:14;;;;;;;2.57;2.23;;;;;;;5.48;100.00;152770.44;5088851;28;20939;-84
2023/12/14 02:58:42;;;;;;;3.17;1.90;;;;;;;5.46;100.00;152765.28;5090116;28;20470;-84
2023/12/14 03:01:09;;;;;;;3.20;1.90;;;;;;;5.46;100.00;152765.28;5083549;28;20449;-84
2023/12/14 03:03:35;;;;;;;3.57;2.40;;;;;;;5.43;100.00;152756.25;5067982;28;20816;-84
2023/12/14 03:06:02;;;;;;;5.80;2.23;;;;;;;5.41;100.00;152751.09;5089843;28;20453;-84
2023/12/14 03:08:28;;;;;;;3.00;2.03;;;;;;;5.40;100.00;152748.56;5085166;28;20474;-83
2023/12/14 03:10:55;;;;;;;3.10;2.20;;;;;;;5.40;100.00;152748.56;5086256;28;20449;-82
2023/12/14 03:13:21;;;;;;;2.60;1.77;;;;;;;5.40;100.00;152748.56;5091035;28;21356;-83
2023/12/14 03:15:49;;;;;;;2.30;1.80;;;;;;;5.42;100.00;152755.00;5070043;28;20449;-84
2023/12/14 03:18:16;;;;;;;2.40;2.20;;;;;;;5.41;100.00;152751.09;5087226;28;20455;-83
2023/12/14 03:20:42;;;;;;;3.10;2.30;;;;;;;5.42;100.00;152753.69;5086006;28;20894;-83
2023/12/14 03:23:09;;;;;;;3.97;2.40;;;;;;;5.41;100.00;152752.41;5084735;28;20503;-84
2023/12/14 03:25:35;;;;;;;2.67;2.00;;;;;;;5.42;100.00;152755.00;5087358;28;20463;-83
2023/12/14 03:28:02;;;;;;;2.50;2.10;;;;;;;5.44;100.00;152760.13;5084409;28;20971;-83
2023/12/14 03:30:28;;;;;;;3.10;2.60;;;;;;;5.44;100.00;152758.84;5097281;28;20469;-83
2023/12/14 03:32:56;;;;;;;4.00;2.90;;;;;;;5.43;100.00;152757.53;5087512;28;20457;-83
2023/12/14 03:35:23;;;;;;;3.40;2.60;;;;;;;5.42;100.00;152755.00;5102613;27;20453;-83
2023/12/14 03:37:49;;;;;;;3.07;2.57;;;;;;;5.44;100.00;152760.13;5087492;28;20446;-83
2023/12/14 03:40:16;;;;;;;4.30;2.57;;;;;;;5.44;100.00;152758.84;5097037;28;20432;-83
2023/12/14 03:42:43;;;;;;;4.10;2.97;;;;;;;5.45;100.00;152762.69;5094676;28;20457;-84
2023/12/14 03:45:10;;;;;;;3.40;2.90;;;;;;;5.47;100.00;152767.88;5083677;28;20471;-84
2023/12/14 03:47:36;;;;;;;3.73;2.37;;;;;;;5.47;100.00;152766.59;5088972;28;20477;-84
2023/12/14 03:50:06;;;;;;;3.40;2.67;;;;;;;5.45;100.00;152762.69;5089268;28;20553;-84
2023/12/14 03:52:32;;;;;;;2.60;2.40;;;;;;;5.48;100.00;152769.19;5088703;28;20538;-84
2023/12/14 03:54:59;;;;;;;3.10;2.60;;;;;;;5.47;100.00;152767.88;5087514;28;20437;-83
2023/12/14 03:57:25;;;;;;;3.10;2.17;;;;;;;5.48;100.00;152769.19;5086340;28;20465;-84
2023/12/14 03:59:52;;;;;;;3.07;2.43;;;;;;;5.48;100.00;152770.44;5082517;28;20445;-84
2023/12/14 04:02:18;;;;;;;3.30;2.40;;;;;;;5.51;100.00;152776.88;5094922;28;20447;-83
2023/12/14 04:04:46;;;;;;;2.67;2.20;;;;;;;5.51;100.00;152776.88;5093838;28;20547;-83
2023/12/14 04:07:14;;;;;;;3.33;2.30;;;;;;;5.52;100.00;152779.47;5086727;28;20466;-83
2023/12/14 04:09:41;;;;;;;2.77;2.10;;;;;;;5.53;100.00;152783.31;5091451;28;20433;-83
2023/12/14 04:12:07;;;;;;;2.53;1.90;;;;;;;5.54;100.00;152784.63;5088248;28;20453;-83
2023/12/14 04:14:34;;;;;;;2.70;2.33;;;;;;;5.54;100.00;152784.63;5088349;28;20475;-83
2023/12/14 04:17:00;;;;;;;2.57;2.00;;;;;;;5.51;100.00;152776.88;5086371;28;20514;-83
2023/12/14 04:19:27;;;;;;;2.90;2.10;;;;;;;5.52;100.00;152780.78;5083898;28;20530;-83
2023/12/14 04:21:53;;;;;;;2.57;2.10;;;;;;;5.52;100.00;152780.78;5088473;28;20565;-83
2023/12/14 04:24:22;;;;;;;3.00;2.40;;;;;;;5.53;100.00;152782.06;5084369;28;20452;-83
2023/12/14 04:26:48;;;;;;;3.40;2.37;;;;;;;5.52;100.00;152779.47;5081898;28;20476;-83
2023/12/14 04:29:15;;;;;;;2.80;2.43;;;;;;;5.53;100.00;152782.06;5083990;28;20441;-83
2023/12/14 04:31:41;;;;;;;3.83;2.07;;;;;;;5.56;100.00;152789.75;5081279;28;20484;-84
2023/12/14 04:34:11;;;;;;;4.33;2.60;;;;;;;5.57;100.00;152792.38;5094423;28;20443;-83
2023/12/14 04:36:38;;;;;;;3.90;2.40;;;;;;;5.59;100.00;152796.25;5094450;28;20455;-84
2023/12/14 04:39:04;;;;;;;3.17;2.70;;;;;;;5.60;100.00;152798.81;5079245;28;20441;-84
2023/12/14 04:41:32;;;;;;;4.60;2.50;;;;;;;5.60;100.00;152800.09;5085309;28;20457;-84
2023/12/14 04:43:59;;;;;;;2.80;2.37;;;;;;;5.61;100.00;152801.41;5079987;28;20441;-84
2023/12/14 04:46:25;;;;;;;2.87;2.07;;;;;;;5.61;100.00;152802.72;5088041;28;20971;-84
2023/12/14 04:48:52;;;;;;;3.77;2.67;;;;;;;5.61;100.00;152802.72;5071883;28;20468;-84
2023/12/14 04:51:18;;;;;;;4.00;3.60;;;;;;;5.61;100.00;152801.41;5101488;27;20461;-84
2023/12/14 04:53:45;;;;;;;3.30;2.50;;;;;;;5.59;100.00;152797.50;5092200;28;20449;-84
2023/12/14 04:56:12;;;;;;;3.77;2.60;;;;;;;5.61;100.00;152802.72;5073272;28;20959;-84
2023/12/14 04:58:40;;;;;;;4.60;2.80;;;;;;;5.63;100.00;152807.84;5086344;28;20538;-84
2023/12/14 05:01:07;;;;;;;3.67;3.20;;;;;;;5.65;100.00;152811.69;5085721;28;20451;-84
2023/12/14 05:03:34;;;;;;;4.17;3.77;;;;;;;5.63;100.00;152806.56;5106006;27;20452;-84
2023/12/14 05:06:00;;;;;;;5.43;4.00;;;;;;;5.62;100.00;152805.25;5104419;27;20482;-84
2023/12/14 05:08:27;;;;;;;3.90;3.50;;;;;;;5.62;100.00;152805.25;5095161;28;20476;-84
2023/12/14 05:10:54;;;;;;;5.80;4.57;;;;;;;5.62;100.00;152805.25;5086681;28;20445;-84
2023/12/14 05:13:20;;;;;;;6.40;5.07;;;;;;;5.61;100.00;152802.72;5094636;28;20961;-85
2023/12/14 05:15:48;;;;;;;5.77;4.80;;;;;;;5.62;100.00;152805.25;5091429;28;20437;-84
2023/12/14 05:18:14;;;;;;;4.87;4.37;;;;;;;5.63;100.00;152807.84;5100700;28;20831;-84
2023/12/14 05:20:41;;;;;;;6.30;5.37;;;;;;;5.66;100.00;152814.28;5108680;27;20441;-84
2023/12/14 05:23:07;;;;;;;6.07;5.23;;;;;;;5.65;100.00;152813.00;5089774;28;20539;-84
2023/12/14 05:25:34;;;;;;;8.40;6.53;;;;;;;5.65;100.00;152813.00;5090889;28;20449;-84
2023/12/14 05:28:00;;;;;;;6.20;5.50;;;;;;;5.66;100.00;152815.59;5089859;28;21044;-84
2023/12/14 05:30:27;;;;;;;6.70;5.27;;;;;;;5.67;100.00;152816.84;5092789;28;20490;-84
2023/12/14 05:32:55;;;;;;;8.03;5.07;;;;;;;5.68;100.00;152819.44;5086656;28;20453;-84
2023/12/14 05:35:21;;;;;;;6.20;4.97;;;;;;;5.69;100.00;152822.03;5088445;28;20456;-84
2023/12/14 05:37:48;;;;;;;6.47;4.93;;;;;;;5.69;100.00;152823.34;5083785;28;20463;-84
2023/12/14 05:40:15;;;;;;;6.07;4.67;;;;;;;5.69;100.00;152823.34;5091822;28;20440;-84
2023/12/14 05:42:41;;;;;;;5.10;4.60;;;;;;;5.71;100.00;152828.47;5100467;28;20529;-84
2023/12/14 05:45:09;;;;;;;5.60;5.00;;;;;;;5.70;100.00;152825.88;5096742;28;20572;-84
2023/12/14 05:47:35;;;;;;;6.43;5.13;;;;;;;5.71;100.00;152828.47;5096461;28;20488;-84
2023/12/14 05:50:04;;;;;;;5.50;3.63;;;;;;;5.73;100.00;152833.63;5091179;28;20452;-85
2023/12/14 05:52:31;;;;;;;5.63;4.27;;;;;;;5.73;100.00;152833.63;5089277;28;20445;-84
2023/12/14 05:55:18;;;;;;;;;;;;;;;;;;;;;
2023/12/14 05:58:23;;;;;;;5.00;3.70;;;;;;;5.75;100.00;152838.78;5098839;28;20523;-85
2023/12/14 06:00:50;;;;;;;4.80;3.90;;;;;;;5.75;100.00;152838.78;5089752;28;21168;-85
2023/12/14 06:03:16;;;;;;;6.30;4.93;;;;;;;5.75;100.00;152838.78;5095709;28;20452;-85
2023/12/14 06:05:53;;;;;;;6.27;4.80;;;;;;;5.76;100.00;152841.38;5091704;28;20514;-84
2023/12/14 06:08:21;;;;;;;6.90;4.83;;;;;;;5.77;100.00;152842.69;5096353;28;20476;-84
2023/12/14 06:10:47;;;;;;;6.87;4.93;;;;;;;5.77;100.00;152843.94;5108608;27;20453;-84
2023/12/14 06:13:14;;;;;;;5.90;4.33;;;;;;;5.77;100.00;152843.94;5093607;28;20513;-84
2023/12/14 06:15:40;;;;;;;5.73;4.47;;;;;;;5.78;100.00;152845.22;5090597;28;20459;-85
2023/12/14 06:18:07;;;;;;;6.20;4.37;;;;;;;5.77;100.00;152842.69;5094892;28;20865;-84
2023/12/14 06:20:33;;;;;;;5.67;4.60;;;;;;;5.77;100.00;152843.94;5087023;28;20465;-84
2023/12/14 06:23:01;;;;;;;7.60;4.93;;;;;;;5.78;100.00;152845.22;5093721;28;20453;-85
2023/12/14 06:25:27;;;;;;;8.00;5.27;;;;;;;5.79;100.00;152847.81;5079401;28;20881;-84
2023/12/14 06:27:54;;;;;;;7.30;5.13;;;;;;;5.79;100.00;152849.13;5092794;28;20897;-84
2023/12/14 06:30:23;;;;;;;7.40;5.50;;;;;;;5.80;100.00;152851.66;5092966;28;20465;-85
2023/12/14 06:32:50;;;;;;;9.47;5.93;;;;;;;5.80;100.00;152851.66;5094177;28;21896;-85
2023/12/14 06:35:17;;;;;;;7.70;5.70;;;;;;;5.81;100.00;152854.28;5087368;28;20960;-84
2023/12/14 06:37:43;;;;;;;7.07;5.40;;;;;;;5.79;100.00;152849.13;5095495;28;20547;-84
2023/12/14 06:40:12;;;;;;;6.90;5.40;;;;;;;5.80;100.00;152851.66;5096209;28;20479;-84
2023/12/14 06:42:39;;;;;;;8.70;5.17;;;;;;;5.82;100.00;152856.88;5096834;28;20535;-85
2023/12/14 06:45:06;;;;;;;8.30;5.97;;;;;;;5.80;100.00;152851.66;5093992;28;20447;-84
2023/12/14 06:47:33;;;;;;;7.20;5.60;;;;;;;5.82;100.00;152855.56;5096672;28;20486;-84
2023/12/14 06:50:01;;;;;;;9.50;6.10;;;;;;;5.82;100.00;152856.88;5094152;28;20545;-85
2023/12/14 06:52:28;;;;;;;7.70;6.10;;;;;;;5.82;100.00;152856.88;5097690;28;20564;-85
2023/12/14 06:54:54;;;;;;;8.17;6.73;;;;;;;5.82;100.00;152856.88;5097014;28;20459;-85
2023/12/14 06:57:22;;;;;;;8.67;7.33;;;;;;;5.81;100.00;152854.28;5094899;28;20962;-85
2023/12/14 06:59:49;;;;;;;9.67;7.07;;;;;;;5.80;100.00;152850.44;5082377;28;20475;-85
2023/12/14 07:02:15;;;;;;;9.33;7.40;;;;;;;5.81;100.00;152854.28;5092486;28;20460;-84
2023/12/14 07:04:42;;;;;;;13.37;8.20;;;;;;;5.79;100.00;152849.13;5094770;28;20511;-84
2023/12/14 07:07:08;;;;;;;11.13;7.50;;;;;;;5.79;100.00;152849.13;5096423;28;20449;-84
2023/12/14 07:09:36;;;;;;;9.53;7.27;;;;;;;5.80;100.00;152851.66;5095084;28;20472;-84
2023/12/14 07:12:02;;;;;;;11.17;8.10;;;;;;;5.80;100.00;152851.66;5086578;28;20464;-85
2023/12/14 07:14:30;;;;;;;10.90;8.27;;;;;;;5.79;100.00;152849.13;5094642;28;20454;-85
2023/12/14 07:16:57;;;;;;;12.00;7.53;;;;;;;5.80;100.00;152851.66;5102447;27;20846;-85
2023/12/14 07:19:23;;;;;;;12.97;9.07;;;;;;;5.80;100.00;152851.66;5093056;28;20444;-85
2023/12/14 07:21:49;;;;;;;9.50;6.90;;;;;;;5.82;100.00;152855.56;5100772;28;20456;-85
2023/12/14 07:24:18;;;;;;;8.77;6.77;;;;;;;5.83;100.00;152859.41;5098650;28;20778;-84
2023/12/14 07:26:45;;;;;;;9.27;7.00;;;;;;;5.84;100.00;152862.00;5097447;28;20667;-85
2023/12/14 07:29:12;;;;;;;8.90;6.37;;;;;;;5.84;100.00;152860.72;5094127;28;20473;-85
2023/12/14 07:31:40;;;;;;;11.17;7.07;;;;;;;5.83;100.00;152858.13;5095777;28;21026;-85
2023/12/14 07:34:06;;;;;;;9.53;7.27;;;;;;;5.84;100.00;152860.72;5096623;28;21017;-85
2023/12/14 07:36:33;;;;;;;9.17;6.97;;;;;;;5.84;100.00;152862.00;5094180;28;20457;-85
2023/12/14 07:39:01;;;;;;;12.70;6.37;;;;;;;5.86;100.00;152865.91;5080014;28;20455;-85
2023/12/14 07:41:29;;;;;;;9.40;6.50;;;;;;;5.85;100.00;152864.63;5080033;28;20452;-85
2023/12/14 07:43:56;;;;;;;11.00;5.90;;;;;;;5.86;100.00;152865.91;5093297;27;20442;-85
2023/12/14 07:46:23;;;;;;;10.57;6.10;;;;;;;5.90;100.00;152877.56;5095667;28;20460;-84
2023/12/14 07:48:54;;;;;;;6.30;5.50;;;;;;;5.87;100.00;152869.81;5066987;28;20477;-85
2023/12/14 07:51:20;;;;;;;7.00;5.40;;;;;;;5.88;100.00;152872.34;5080436;28;20460;-85
2023/12/14 07:53:47;;;;;;;6.47;4.50;;;;;;;5.87;100.00;152869.81;5093086;28;20456;-85
2023/12/14 07:56:14;;;;;;;6.13;4.63;;;;;;;5.91;100.00;152880.09;5092872;28;20455;-85
2023/12/14 07:58:40;;;;;;;8.57;5.73;;;;;;;5.92;100.00;152882.69;5096881;28;20436;-84
2023/12/14 08:01:09;;;;;;;7.80;5.63;;;;;;;5.94;100.00;152886.56;5095549;28;20455;-84
2023/12/14 08:03:36;;;;;;;8.73;5.67;;;;;;;5.94;100.00;152887.84;5091887;28;20238;-84
2023/12/14 08:06:04;;;;;;;8.10;6.07;;;;;;;5.95;100.00;152890.44;5099957;27;20456;-84
2023/12/14 08:08:30;;;;;;;7.83;6.20;;;;;;;5.96;100.00;152893.00;5090558;28;20469;-84
2023/12/14 08:10:57;;;;;;;11.20;6.80;;;;;;;5.97;100.00;152895.59;5092504;28;20472;-84
2023/12/14 08:13:23;;;;;;;8.03;5.90;;;;;;;5.99;100.00;152900.75;5095687;28;20441;-84
2023/12/14 08:15:50;;;;;;;8.60;5.90;;;;;;;6.01;100.00;152905.88;5095366;28;21337;-84
2023/12/14 08:18:17;;;;;;;8.10;5.80;;;;;;;6.03;100.00;152911.09;5093053;28;20451;-84
2023/12/14 08:20:43;;;;;;;9.87;7.00;;;;;;;6.05;100.00;152914.94;5092679;28;20503;-84
2023/12/14 08:23:11;;;;;;;11.20;7.03;;;;;;;6.06;100.00;152917.53;5082330;28;20464;-84
2023/12/14 08:25:38;;;;;;;9.17;6.80;;;;;;;6.08;100.00;152922.69;5095598;28;20484;-84
2023/12/14 08:28:05;;;;;;;10.47;6.63;;;;;;;6.09;100.00;152926.53;5092777;28;20479;-84
2023/12/14 08:30:31;;;;;;;10.17;7.00;;;;;;;6.11;100.00;152930.44;5065433;28;20908;-84
2023/12/14 08:32:59;;;;;;;8.13;5.87;;;;;;;6.13;100.00;152935.59;5080279;28;20461;-84
2023/12/14 08:35:25;;;;;;;10.03;6.53;;;;;;;6.16;100.00;152943.31;5096880;28;20461;-84
2023/12/14 08:37:52;;;;;;;7.40;6.60;;;;;;;6.19;100.00;152949.78;5095386;28;20992;-84
2023/12/14 08:40:20;;;;;;;8.13;6.70;;;;;;;6.20;100.00;152953.63;5109515;28;20471;-84
2023/12/14 08:42:48;;;;;;;10.90;7.07;;;;;;;6.22;100.00;152958.81;5096760;28;20453;-84
2023/12/14 08:45:15;;;;;;;8.73;6.90;;;;;;;6.25;100.00;152965.28;5092200;28;20546;-83
2023/12/14 08:47:42;;;;;;;9.13;6.70;;;;;;;6.25;100.00;152965.28;5096736;28;20452;-84
2023/12/14 08:50:09;;;;;;;9.53;7.30;;;;;;;6.26;100.00;152967.81;5091852;28;20495;-84
2023/12/14 08:52:36;;;;;;;9.67;7.00;;;;;;;6.28;100.00;152972.97;5082166;28;20457;-84
2023/12/14 08:55:03;;;;;;;9.47;7.23;;;;;;;6.28;100.00;152974.28;5079318;28;20479;-84
2023/12/14 08:57:30;;;;;;;8.67;6.50;;;;;;;6.30;100.00;152979.41;5090449;28;20868;-85
2023/12/14 08:59:57;;;;;;;9.37;6.60;;;;;;;6.29;100.00;152976.88;5081607;28;20456;-82
2023/12/14 09:02:23;;;;;;;10.00;7.13;;;;;;;6.32;100.00;152983.31;5091808;28;20460;-72
2023/12/14 09:04:51;;;;;;;9.73;6.63;;;;;;;6.35;100.00;152992.38;5093179;28;20978;-74
2023/12/14 09:07:18;;;;;;;9.87;6.77;;;;;;;6.39;100.00;153001.38;5094585;28;20464;-72
2023/12/14 09:09:44;;;;;;;9.57;6.47;;;;;;;6.42;100.00;153009.13;5090226;28;20476;-74
2023/12/14 09:12:12;;;;;;;12.77;7.00;;;;;;;6.44;100.00;153014.28;5077285;28;20477;-73
2023/12/14 09:14:40;;;;;;;8.17;5.97;;;;;;;6.44;100.00;153014.28;5076673;28;20451;-73
2023/12/14 09:17:06;;;;;;;11.57;8.30;;;;;;;6.46;100.00;153020.72;5094869;28;20501;-73
2023/12/14 09:19:33;;;;;;;9.37;6.83;;;;;;;6.48;100.00;153024.63;5088448;28;20459;-73
2023/12/14 09:21:59;;;;;;;7.73;6.43;;;;;;;6.51;100.00;153033.63;5076842;28;20933;-73
2023/12/14 09:24:26;;;;;;;9.40;7.50;;;;;;;6.57;100.00;153049.13;5094361;28;20448;-73
2023/12/14 09:26:53;;;;;;;10.40;7.87;;;;;;;6.59;100.00;153054.28;5094750;28;20810;-73
2023/12/14 09:29:19;;;;;;;11.03;6.60;;;;;;;6.60;100.00;153055.56;5091908;28;20475;-73
2023/12/14 09:31:47;;;;;;;9.67;6.73;;;;;;;6.62;100.00;153060.72;5095050;28;20480;-73
2023/12/14 09:34:14;;;;;;;9.13;6.90;;;;;;;6.63;100.00;153064.63;5094776;28;20468;-73
2023/12/14 09:36:41;;;;;;;8.67;6.57;;;;;;;6.66;100.00;153071.06;5094400;28;20517;-73
2023/12/14 09:39:10;;;;;;;8.80;6.33;;;;;;;6.68;100.00;153076.22;5098040;28;20455;-73
2023/12/14 09:41:37;;;;;;;8.70;6.70;;;;;;;6.72;100.00;153086.56;5097806;28;20453;-73
2023/12/14 09:44:03;;;;;;;9.80;7.07;;;;;;;6.75;100.00;153095.56;5080288;28;20501;-73
2023/12/14 09:46:31;;;;;;;10.20;7.40;;;;;;;6.79;100.00;153104.63;5079385;28;20459;-73
2023/12/14 09:49:00;;;;;;;11.03;6.90;;;;;;;6.82;100.00;153111.06;5097365;28;20467;-73
2023/12/14 09:51:27;;;;;;;9.13;7.20;;;;;;;6.85;100.00;153120.13;5097217;28;20497;-73
2023/12/14 09:53:57;;;;;;;10.17;6.93;;;;;;;6.84;100.00;153117.53;5096489;28;20456;-74
2023/12/14 09:56:24;;;;;;;10.83;7.43;;;;;;;6.87;100.00;153123.97;5094933;28;20455;-74
2023/12/14 09:58:51;;;;;;;14.73;8.47;;;;;;;6.86;100.00;153121.44;5098321;28;20494;-74
2023/12/14 10:01:24;;;;;;;11.73;7.30;;;;;;;6.88;100.00;153126.59;5096647;28;20464;-74
2023/12/14 10:03:51;;;;;;;10.07;7.10;;;;;;;6.90;100.00;153133.03;5090997;28;20452;-73
2023/12/14 10:06:19;;;;;;;12.33;7.90;;;;;;;6.91;100.00;153135.59;5082140;28;20493;-74
2023/12/14 10:08:54;;;;;;;11.57;7.17;;;;;;;6.92;100.00;153136.88;5082326;28;20596;-74
2023/12/14 10:11:22;;;;;;;9.43;7.03;;;;;;;6.97;100.00;153149.78;5098565;28;20456;-74
2023/12/14 10:13:48;;;;;;;9.70;7.50;;;;;;;7.03;100.00;153165.28;5065512;28;20517;-74
2023/12/14 10:16:27;;;;;;;12.77;8.43;;;;;;;7.07;100.00;153176.91;5096953;27;20448;-74
2023/12/14 10:18:54;;;;;;;10.40;8.17;;;;;;;7.11;100.00;153187.25;5097993;28;20447;-74
2023/12/14 10:21:22;;;;;;;11.47;7.57;;;;;;;7.14;100.00;153193.72;5096717;28;20981;-74
2023/12/14 10:23:49;;;;;;;10.20;6.93;;;;;;;7.17;100.00;153202.75;5097789;28;20982;-74
2023/12/14 10:26:16;;;;;;;11.03;7.83;;;;;;;7.23;100.00;153218.22;5099040;28;20459;-74
2023/12/14 10:28:42;;;;;;;12.53;8.27;;;;;;;7.29;100.00;153232.44;5100018;28;20472;-74
2023/12/14 10:31:10;;;;;;;10.67;7.77;;;;;;;7.33;100.00;153244.03;5098517;28;20472;-74
2023/12/14 10:33:38;;;;;;;11.63;7.90;;;;;;;7.32;100.00;153241.47;5098081;28;20540;-73
2023/12/14 10:36:05;;;;;;;10.33;6.80;;;;;;;7.34;100.00;153245.34;5098259;28;20452;-74
2023/12/14 10:38:35;;;;;;;11.43;6.10;;;;;;;7.34;100.00;153246.63;5097096;28;20812;-74
2023/12/14 10:41:02;;;;;;;9.47;6.90;;;;;;;7.32;100.00;153241.47;5092711;28;20514;-74
2023/12/14 10:43:29;;;;;;;9.27;6.17;;;;;;;7.32;100.00;153241.47;5099296;28;20471;-74
2023/12/14 10:45:56;;;;;;;8.43;6.40;;;;;;;7.35;100.00;153247.94;5097989;28;20522;-74
2023/12/14 10:48:23;;;;;;;10.30;7.83;;;;;;;7.36;100.00;153250.50;5098771;28;20455;-74
2023/12/14 10:50:51;;;;;;;12.80;6.90;;;;;;;7.39;100.00;153257.00;5097623;28;20492;-74
2023/12/14 10:53:18;;;;;;;9.37;6.87;;;;;;;7.42;100.00;153266.00;5080334;28;20465;-74
2023/12/14 10:55:46;;;;;;;7.63;5.83;;;;;;;7.47;100.00;153277.63;5096230;28;20456;-74
2023/12/14 10:58:13;;;;;;;9.63;5.70;;;;;;;7.53;100.00;153293.13;5099374;28;20460;-74
2023/12/14 11:00:40;;;;;;;8.20;4.77;;;;;;;7.57;100.00;153304.72;5098459;28;20501;-75
2023/12/14 11:03:07;;;;;;;6.60;4.60;;;;;;;7.58;100.00;153306.03;5095471;28;20487;-74
2023/12/14 11:05:36;;;;;;;7.00;4.40;;;;;;;7.61;100.00;153313.78;5095186;28;20469;-74
2023/12/14 11:08:09;;;;;;;6.63;5.30;;;;;;;7.60;100.00;153312.50;5095245;28;20444;-84
2023/12/14 11:10:39;;;;;;;10.57;6.53;;;;;;;7.60;100.00;153312.50;5079429;28;20478;-84
2023/12/14 11:13:11;;;;;;;7.10;5.70;;;;;;;7.62;100.00;153316.41;5095366;28;20538;-84
2023/12/14 11:15:39;;;;;;;8.53;6.23;;;;;;;7.64;100.00;153321.56;5096008;28;20525;-84
2023/12/14 11:18:28;;;;;;;10.43;6.20;;;;;;;7.66;100.00;153326.72;5098205;28;20456;-84
2023/12/14 11:20:56;;;;;;;7.30;4.80;;;;;;;7.71;100.00;153339.63;5094012;28;20809;-83
2023/12/14 11:23:32;;;;;;;8.30;5.50;;;;;;;7.72;100.00;153343.53;5092747;28;22173;-84